createdAt,value
2018-12-12T00:01:34.879Z,6.50
2018-12-12T00:04:03.183Z,6.27
2018-12-12T00:06:31.435Z,6.70
2018-12-12T00:08:59.723Z,7.60
2018-12-12T00:11:27.976Z,7.07
2018-12-12T00:13:56.286Z,7.83
2018-12-12T00:16:24.610Z,8.97
2018-12-12T00:18:52.799Z,6.77
2018-12-12T00:22:50.499Z,8.27
2018-12-12T00:25:18.793Z,9.47
2018-12-12T00:27:47.259Z,7.90
2018-12-12T00:30:15.507Z,8.40
2018-12-12T00:32:43.723Z,8.57
2018-12-12T00:35:11.915Z,6.70
2018-12-12T00:37:40.237Z,6.93
2018-12-12T00:40:08.551Z,6.90
2018-12-12T00:42:36.883Z,7.87
2018-12-12T00:45:05.595Z,8.50
2018-12-12T00:47:33.887Z,10.47
2018-12-12T00:50:02.476Z,8.83
2018-12-12T00:52:31.009Z,11.40
2018-12-12T00:54:59.232Z,9.87
2018-12-12T00:57:27.999Z,7.33
2018-12-12T00:59:56.283Z,7.50
2018-12-12T01:02:24.539Z,6.57
2018-12-12T01:04:52.787Z,9.27
2018-12-12T01:07:21.015Z,10.47
2018-12-12T01:09:49.247Z,7.90
2018-12-12T01:12:17.760Z,10.60
2018-12-12T01:14:45.947Z,7.20
2018-12-12T01:17:14.240Z,9.47
2018-12-12T01:19:42.447Z,10.17
2018-12-12T01:22:10.667Z,7.73
2018-12-12T01:24:38.876Z,7.87
2018-12-12T01:27:07.395Z,6.37
2018-12-12T01:29:35.630Z,6.60
2018-12-12T01:32:04.045Z,8.60
2018-12-12T01:34:32.677Z,7.30
2018-12-12T01:37:01.367Z,6.17
2018-12-12T01:39:29.591Z,7.50
2018-12-12T01:41:57.803Z,7.27
2018-12-12T01:44:26.013Z,7.50
2018-12-12T01:46:54.326Z,6.20
2018-12-12T01:49:22.601Z,7.70
2018-12-12T01:51:50.801Z,8.50
2018-12-12T01:54:19.065Z,8.37
2018-12-12T01:56:47.667Z,9.63
2018-12-12T01:59:15.883Z,9.67
2018-12-12T02:01:44.080Z,9.10
2018-12-12T02:04:12.300Z,9.53
2018-12-12T02:06:40.531Z,9.83
2018-12-12T02:09:08.832Z,8.47
2018-12-12T02:11:37.108Z,9.37
2018-12-12T02:14:05.343Z,10.50
2018-12-12T02:16:33.938Z,7.90
2018-12-12T02:19:02.472Z,9.13
2018-12-12T02:21:30.875Z,7.70
2018-12-12T02:23:59.150Z,9.70
2018-12-12T02:26:27.362Z,8.97
2018-12-12T02:28:55.570Z,7.23
2018-12-12T02:31:23.778Z,7.57
2018-12-12T02:33:51.997Z,9.60
2018-12-12T02:36:20.199Z,7.60
2018-12-12T02:38:48.490Z,12.83
2018-12-12T02:41:16.979Z,7.13
2018-12-12T02:43:45.303Z,14.13
2018-12-12T02:46:13.506Z,9.70
2018-12-12T02:48:41.760Z,8.93
2018-12-12T02:51:10.005Z,8.50
2018-12-12T02:53:38.212Z,7.20
2018-12-12T02:56:06.416Z,7.13
2018-12-12T02:58:34.728Z,7.60
2018-12-12T03:01:02.949Z,9.67
2018-12-12T03:03:31.472Z,8.30
2018-12-12T03:05:59.695Z,9.03
2018-12-12T03:08:27.946Z,7.50
2018-12-12T03:10:56.156Z,10.30
2018-12-12T03:13:24.458Z,7.67
2018-12-12T03:15:52.719Z,7.17
2018-12-12T03:18:20.955Z,9.53
2018-12-12T03:20:49.175Z,7.60
2018-12-12T03:23:17.418Z,7.60
2018-12-12T03:25:45.930Z,8.10
2018-12-12T03:28:14.157Z,8.00
2018-12-12T03:30:42.389Z,11.40
2018-12-12T03:33:10.656Z,6.70
2018-12-12T03:35:38.945Z,9.03
2018-12-12T03:38:07.215Z,6.77
2018-12-12T03:40:36.087Z,7.70
2018-12-12T03:43:04.695Z,6.77
2018-12-12T03:45:32.903Z,13.93
2018-12-12T03:48:01.338Z,7.27
2018-12-12T03:50:29.724Z,7.57
2018-12-12T03:52:57.943Z,7.47
2018-12-12T03:55:26.183Z,10.00
2018-12-12T03:57:54.404Z,8.37
2018-12-12T04:00:22.619Z,10.73
2018-12-12T04:02:50.930Z,10.63
2018-12-12T04:05:19.144Z,10.50
2018-12-12T04:07:47.467Z,7.40
2018-12-12T04:10:15.867Z,6.90
2018-12-12T04:12:44.075Z,9.30
2018-12-12T04:15:12.282Z,11.00
2018-12-12T04:17:40.589Z,9.10
2018-12-12T04:20:08.957Z,6.47
2018-12-12T04:22:37.178Z,8.50
2018-12-12T04:25:06.931Z,6.53
2018-12-12T04:27:35.205Z,6.87
2018-12-12T04:30:03.911Z,8.13
2018-12-12T04:32:32.143Z,8.03
2018-12-12T04:35:00.458Z,10.00
2018-12-12T04:37:28.731Z,10.17
2018-12-12T04:39:56.961Z,12.63
2018-12-12T04:42:25.384Z,8.03
2018-12-12T04:44:53.694Z,8.87
2018-12-12T04:47:21.996Z,8.97
2018-12-12T04:49:50.283Z,12.93
2018-12-12T04:52:18.512Z,8.17
2018-12-12T04:54:46.996Z,11.63
2018-12-12T04:57:15.191Z,13.67
2018-12-12T04:59:43.459Z,8.83
2018-12-12T05:02:12.865Z,9.13
2018-12-12T05:04:41.564Z,11.80
2018-12-12T05:07:09.766Z,9.50
2018-12-12T05:09:37.967Z,7.47
2018-12-12T05:12:06.345Z,8.17
2018-12-12T05:14:34.547Z,11.37
2018-12-12T05:17:03.103Z,8.87
2018-12-12T05:19:31.308Z,10.40
2018-12-12T05:21:59.511Z,10.20
2018-12-12T05:24:27.817Z,12.33
2018-12-12T05:26:56.022Z,12.60
2018-12-12T05:29:24.296Z,12.57
2018-12-12T05:31:52.556Z,16.93
2018-12-12T05:34:20.785Z,11.20
2018-12-12T05:36:53.229Z,17.10
2018-12-12T05:39:21.474Z,11.33
2018-12-12T05:41:49.666Z,11.17
2018-12-12T05:44:17.875Z,14.37
2018-12-12T05:46:46.162Z,11.90
2018-12-12T05:49:14.441Z,25.00
2018-12-12T05:51:42.753Z,12.53
2018-12-12T05:54:10.975Z,13.90
2018-12-12T05:56:39.535Z,13.40
2018-12-12T05:59:07.728Z,14.60
2018-12-12T06:01:35.985Z,15.10
2018-12-12T06:04:04.289Z,12.77
2018-12-12T06:06:32.467Z,14.80
2018-12-12T06:09:00.667Z,12.83
2018-12-12T06:11:28.860Z,14.93
2018-12-12T06:13:57.063Z,11.60
2018-12-12T06:16:25.339Z,15.57
2018-12-12T06:18:53.834Z,18.13
2018-12-12T06:21:22.199Z,16.63
2018-12-12T06:23:50.734Z,15.13
2018-12-12T06:26:19.644Z,15.17
2018-12-12T06:28:47.859Z,12.77
2018-12-12T06:31:16.131Z,17.83
2018-12-12T06:33:44.412Z,14.80
2018-12-12T06:36:12.780Z,16.07
2018-12-12T06:38:41.177Z,13.60
2018-12-12T06:41:09.391Z,16.17
2018-12-12T06:43:37.756Z,16.70
2018-12-12T06:46:06.282Z,17.30
2018-12-12T06:48:34.619Z,18.40
2018-12-12T06:51:02.842Z,16.93
2018-12-12T06:53:31.092Z,17.30
2018-12-12T06:55:59.379Z,17.73
2018-12-12T06:58:27.682Z,18.17
2018-12-12T07:00:55.974Z,19.60
2018-12-12T07:03:24.227Z,20.03
2018-12-12T07:05:52.459Z,17.93
2018-12-12T07:08:20.966Z,18.50
2018-12-12T07:10:49.259Z,18.93
2018-12-12T07:13:17.500Z,19.30
2018-12-12T07:15:45.693Z,17.80
2018-12-12T07:18:13.955Z,19.13
2018-12-12T07:20:42.189Z,15.80
2018-12-12T07:23:10.506Z,16.17
2018-12-12T07:25:39.252Z,16.33
2018-12-12T07:28:07.827Z,19.00
2018-12-12T07:30:36.104Z,19.17
2018-12-12T07:33:04.314Z,17.63
2018-12-12T07:35:32.676Z,15.10
2018-12-12T07:38:01.011Z,18.57
2018-12-12T07:40:29.419Z,18.93
2018-12-12T07:42:57.603Z,17.57
2018-12-12T07:45:25.828Z,20.73
2018-12-12T07:47:54.236Z,18.70
2018-12-12T07:50:22.503Z,17.00
2018-12-12T07:52:50.939Z,20.07
2018-12-12T07:55:19.355Z,15.23
2018-12-12T07:57:47.613Z,17.57
2018-12-12T08:00:15.851Z,18.13
2018-12-12T08:02:44.176Z,17.10
2018-12-12T08:05:12.547Z,18.83
2018-12-12T08:07:40.807Z,19.20
2018-12-12T08:10:09.100Z,19.50
2018-12-12T08:12:37.379Z,19.20
2018-12-12T08:15:05.939Z,17.93
2018-12-12T08:17:34.592Z,24.73
2018-12-12T08:20:03.057Z,17.43
2018-12-12T08:22:31.382Z,18.27
2018-12-12T08:24:59.762Z,18.53
2018-12-12T08:27:27.995Z,17.30
2018-12-12T08:29:56.308Z,26.73
2018-12-12T08:32:24.525Z,22.17
2018-12-12T08:34:52.764Z,24.50
2018-12-12T08:37:21.237Z,22.30
2018-12-12T08:39:49.524Z,22.40
2018-12-12T08:42:18.259Z,22.07
2018-12-12T08:44:46.515Z,16.63
2018-12-12T08:47:14.785Z,16.63
2018-12-12T08:49:43.157Z,18.20
2018-12-12T08:52:11.387Z,20.00
2018-12-12T08:54:39.728Z,20.00
2018-12-12T08:57:08.380Z,22.50
2018-12-12T08:59:36.787Z,19.70
2018-12-12T09:02:05.511Z,19.27
2018-12-12T09:04:33.958Z,18.73
2018-12-12T09:07:02.463Z,18.73
2018-12-12T09:09:30.722Z,23.93
2018-12-12T09:11:59.084Z,21.73
2018-12-12T09:14:27.432Z,18.83
2018-12-12T09:16:55.643Z,23.40
2018-12-12T09:19:23.979Z,23.97
2018-12-12T09:21:52.580Z,28.00
2018-12-12T09:24:21.007Z,19.80
2018-12-12T09:26:49.496Z,20.00
2018-12-12T09:29:17.741Z,24.17
2018-12-12T09:31:46.015Z,14.90
2018-12-12T09:34:14.374Z,20.30
2018-12-12T09:36:42.749Z,23.83
2018-12-12T09:39:11.129Z,26.23
2018-12-12T09:41:39.379Z,20.93
2018-12-12T09:44:08.109Z,22.33
2018-12-12T09:46:36.471Z,17.53
2018-12-12T09:49:04.715Z,22.27
2018-12-12T09:51:32.975Z,21.13
2018-12-12T09:54:01.232Z,17.40
2018-12-12T09:56:30.584Z,22.63
2018-12-12T09:58:58.890Z,18.20
2018-12-12T10:01:27.330Z,18.97
2018-12-12T10:03:55.715Z,19.07
2018-12-12T10:06:23.931Z,19.53
2018-12-12T10:08:52.252Z,19.17
2018-12-12T10:11:20.674Z,19.90
2018-12-12T10:13:48.917Z,19.50
2018-12-12T10:16:17.131Z,16.10
2018-12-12T10:18:45.355Z,18.87
2018-12-12T10:21:13.626Z,19.60
2018-12-12T10:23:42.010Z,23.80
2018-12-12T10:26:10.438Z,18.00
2018-12-12T10:28:38.771Z,17.97
2018-12-12T10:31:07.047Z,18.57
2018-12-12T10:33:37.735Z,19.67
2018-12-12T10:36:05.637Z,20.00
2018-12-12T10:38:33.904Z,20.20
2018-12-12T10:41:02.378Z,19.63
2018-12-12T10:43:30.827Z,18.03
2018-12-12T10:45:59.203Z,18.73
2018-12-12T10:48:27.665Z,21.93
2018-12-12T10:50:56.135Z,18.63
2018-12-12T10:53:24.460Z,22.60
2018-12-12T10:55:52.713Z,23.23
2018-12-12T10:58:20.966Z,19.50
2018-12-12T11:00:55.080Z,15.83
2018-12-12T11:03:28.543Z,20.93
2018-12-12T11:05:56.880Z,20.70
2018-12-12T11:08:25.263Z,20.10
2018-12-12T11:10:53.490Z,18.40
2018-12-12T11:13:21.804Z,20.47
2018-12-12T11:15:50.030Z,21.33
2018-12-12T11:18:18.308Z,17.83
2018-12-12T11:20:46.653Z,20.90
2018-12-12T11:23:14.856Z,18.77
2018-12-12T11:25:43.115Z,18.73
2018-12-12T11:28:11.345Z,18.37
2018-12-12T11:30:39.638Z,18.47
2018-12-12T11:33:08.103Z,19.07
2018-12-12T11:35:36.365Z,18.73
2018-12-12T11:38:04.651Z,22.87
2018-12-12T11:40:32.911Z,22.63
2018-12-12T11:43:01.342Z,20.00
2018-12-12T11:45:29.683Z,22.27
2018-12-12T11:47:58.020Z,28.43
2018-12-12T11:50:26.324Z,22.10
2018-12-12T11:52:54.957Z,21.50
2018-12-12T11:55:23.176Z,22.27
2018-12-12T11:57:51.449Z,23.23
2018-12-12T12:00:20.448Z,28.73
2018-12-12T12:02:48.986Z,23.97
2018-12-12T12:05:17.486Z,26.37
2018-12-12T12:07:45.709Z,24.83
2018-12-12T12:10:14.020Z,23.27
2018-12-12T12:12:42.478Z,24.43
2018-12-12T12:15:11.043Z,23.23
2018-12-12T12:17:39.253Z,27.20
2018-12-12T12:20:09.782Z,22.53
2018-12-12T12:22:38.449Z,25.60
2018-12-12T12:25:07.143Z,23.50
2018-12-12T12:27:35.893Z,23.20
2018-12-12T12:30:07.706Z,23.20
2018-12-12T12:32:36.104Z,23.60
2018-12-12T12:35:04.824Z,22.13
2018-12-12T12:37:33.150Z,20.07
2018-12-12T12:40:10.197Z,21.50
2018-12-12T12:42:44.216Z,19.03
2018-12-12T12:45:13.163Z,24.00
2018-12-12T12:47:41.453Z,28.93
2018-12-12T12:50:23.221Z,21.50
2018-12-12T12:52:51.447Z,18.83
2018-12-12T12:55:20.082Z,18.80
2018-12-12T12:58:08.791Z,16.67
2018-12-12T13:00:48.711Z,20.60
2018-12-12T13:03:22.888Z,21.30
2018-12-12T13:06:02.122Z,20.53
2018-12-12T13:08:32.194Z,22.60
2018-12-12T13:11:00.459Z,22.17
2018-12-12T13:13:28.763Z,18.20
2018-12-12T13:15:57.783Z,22.70
2018-12-12T13:18:26.171Z,18.90
2018-12-12T13:20:54.442Z,20.80
2018-12-12T13:23:22.866Z,19.83
2018-12-12T13:25:51.108Z,19.93
2018-12-12T13:28:19.343Z,19.00
2018-12-12T13:30:47.574Z,19.60
2018-12-12T13:33:15.788Z,21.60
2018-12-12T13:35:44.007Z,20.33
2018-12-12T13:38:13.219Z,18.53
2018-12-12T13:40:41.535Z,20.30
2018-12-12T13:43:09.810Z,23.63
2018-12-12T13:45:38.083Z,18.60
2018-12-12T13:48:06.311Z,22.30
2018-12-12T13:50:55.514Z,20.53
2018-12-12T13:53:24.482Z,19.80
2018-12-12T13:55:52.689Z,18.60
2018-12-12T13:58:21.149Z,22.33
2018-12-12T14:00:49.447Z,22.67
2018-12-12T14:03:17.690Z,29.17
2018-12-12T14:05:45.992Z,18.70
2018-12-12T14:08:14.327Z,23.87
2018-12-12T14:10:43.046Z,19.83
2018-12-12T14:13:11.304Z,20.23
2018-12-12T14:15:39.551Z,18.17
2018-12-12T14:18:07.779Z,18.53
2018-12-12T14:20:36.319Z,18.87
2018-12-12T14:23:05.001Z,18.03
2018-12-12T14:25:33.331Z,20.73
2018-12-12T14:28:01.764Z,17.40
2018-12-12T14:30:30.296Z,21.00
2018-12-12T14:32:58.535Z,18.40
2018-12-12T14:35:26.838Z,26.77
2018-12-12T14:37:55.052Z,20.00
2018-12-12T14:40:23.299Z,23.70
2018-12-12T14:42:51.705Z,22.17
2018-12-12T14:45:20.938Z,24.07
2018-12-12T14:47:49.154Z,17.77
2018-12-12T14:50:17.464Z,17.50
2018-12-12T14:52:45.687Z,23.60
2018-12-12T14:55:14.046Z,22.00
2018-12-12T14:57:42.260Z,19.57
2018-12-12T15:00:10.713Z,19.77
2018-12-12T15:02:38.944Z,23.70
2018-12-12T15:05:07.484Z,22.37
2018-12-12T15:07:35.722Z,25.83
2018-12-12T15:10:05.111Z,16.97
2018-12-12T15:12:33.493Z,15.90
2018-12-12T15:15:01.826Z,18.57
2018-12-12T15:17:30.178Z,18.43
2018-12-12T15:19:58.424Z,18.37
2018-12-12T15:22:27.001Z,18.93
2018-12-12T15:24:55.235Z,21.13
2018-12-12T15:27:23.603Z,19.83
2018-12-12T15:29:51.916Z,18.57
2018-12-12T15:32:20.135Z,13.33
2018-12-12T15:34:48.435Z,16.00
2018-12-12T15:37:16.782Z,17.43
2018-12-12T15:39:45.059Z,21.43
2018-12-12T15:42:13.281Z,21.40
2018-12-12T15:44:41.512Z,19.23
2018-12-12T15:47:09.917Z,16.03
2018-12-12T15:49:38.432Z,17.77
2018-12-12T15:52:06.960Z,16.93
2018-12-12T15:54:35.441Z,19.20
2018-12-12T15:57:03.818Z,21.63
2018-12-12T15:59:32.397Z,23.03
2018-12-12T16:02:00.646Z,21.70
2018-12-12T16:04:28.905Z,16.67
2018-12-12T16:06:57.137Z,16.93
2018-12-12T16:09:25.368Z,18.03
2018-12-12T16:11:53.836Z,19.67
2018-12-12T16:14:22.091Z,21.47
2018-12-12T16:16:50.335Z,20.50
2018-12-12T16:23:33.655Z,24.60
2018-12-12T16:26:04.640Z,21.00
2018-12-12T16:28:34.386Z,20.23
2018-12-12T16:31:08.487Z,19.50
2018-12-12T16:36:56.618Z,18.00
2018-12-12T16:39:30.110Z,21.30
2018-12-12T16:42:02.371Z,21.70
2018-12-12T16:47:43.197Z,18.03
2018-12-12T16:50:11.857Z,22.67
2018-12-12T16:52:40.136Z,19.23
2018-12-12T16:55:08.620Z,17.57
2018-12-12T16:57:42.814Z,20.03
2018-12-12T17:00:11.271Z,21.40
2018-12-12T17:02:46.197Z,19.67
2018-12-12T17:05:14.520Z,19.10
2018-12-12T17:07:43.099Z,19.27
2018-12-12T17:10:11.433Z,21.50
2018-12-12T17:12:39.667Z,22.33
2018-12-12T17:15:08.082Z,20.63
2018-12-12T17:17:36.395Z,20.30
2018-12-12T17:20:06.501Z,21.03
2018-12-12T17:22:34.896Z,18.73
2018-12-12T17:25:03.323Z,19.37
2018-12-12T17:27:36.896Z,24.53
2018-12-12T17:30:06.732Z,16.33
2018-12-12T17:32:34.985Z,15.83
2018-12-12T17:35:08.881Z,14.70
2018-12-12T17:37:33.727Z,16.93
2018-12-12T17:40:02.108Z,15.60
2018-12-12T17:42:30.544Z,16.40
2018-12-12T17:44:58.740Z,17.00
2018-12-12T17:47:26.995Z,14.50
2018-12-12T17:49:55.431Z,15.20
2018-12-12T17:52:23.715Z,14.30
2018-12-12T17:54:52.212Z,12.93
2018-12-12T17:57:20.752Z,11.93
2018-12-12T17:59:49.175Z,11.33
2018-12-12T18:02:17.526Z,10.63
2018-12-12T18:04:47.708Z,10.17
2018-12-12T18:07:15.969Z,10.80
2018-12-12T18:12:50.395Z,9.63
2018-12-12T18:15:18.623Z,10.03
2018-12-12T18:17:54.571Z,14.70
2018-12-12T18:20:22.855Z,11.97
2018-12-12T18:22:51.142Z,10.87
2018-12-12T18:25:19.435Z,12.53
2018-12-12T18:27:47.704Z,10.50
2018-12-12T18:30:15.927Z,9.77
2018-12-12T18:32:44.409Z,10.10
2018-12-12T18:35:12.690Z,14.57
2018-12-12T18:37:40.962Z,10.17
2018-12-12T18:40:09.248Z,11.37
2018-12-12T18:42:37.491Z,11.37
2018-12-12T18:45:05.900Z,10.43
2018-12-12T18:47:34.198Z,8.00
2018-12-12T18:50:02.501Z,8.87
2018-12-12T18:52:30.723Z,10.07
2018-12-12T18:54:59.141Z,7.83
2018-12-12T18:57:27.359Z,8.60
2018-12-12T18:59:55.859Z,11.10
2018-12-12T19:02:24.074Z,11.27
2018-12-12T19:04:52.352Z,9.37
2018-12-12T19:07:20.648Z,8.87
2018-12-12T19:09:49.070Z,9.03
2018-12-12T19:12:17.219Z,8.90
2018-12-12T19:14:50.693Z,8.70
2018-12-12T19:17:19.155Z,8.77
2018-12-12T19:19:47.403Z,9.07
2018-12-12T19:22:15.911Z,9.10
2018-12-12T19:24:44.260Z,7.77
2018-12-12T19:27:12.510Z,11.13
2018-12-12T19:29:40.807Z,9.70
2018-12-12T19:32:09.057Z,10.87
2018-12-12T19:34:37.343Z,11.77
2018-12-12T19:37:05.563Z,9.67
2018-12-12T19:39:33.969Z,9.30
2018-12-12T19:42:02.250Z,9.80
2018-12-12T19:44:30.533Z,10.00
2018-12-12T19:46:58.908Z,9.57
2018-12-12T19:49:27.140Z,8.80
2018-12-12T19:51:55.406Z,10.43
2018-12-12T19:54:23.605Z,9.70
2018-12-12T19:56:51.817Z,10.40
2018-12-12T19:59:20.159Z,9.30
2018-12-12T20:01:48.435Z,9.33
2018-12-12T20:04:16.731Z,8.83
2018-12-12T20:06:44.947Z,9.30
2018-12-12T20:09:13.247Z,9.87
2018-12-12T20:11:41.922Z,7.70
2018-12-12T20:14:10.135Z,10.87
2018-12-12T20:16:38.371Z,9.40
2018-12-12T20:19:06.595Z,9.77
2018-12-12T20:21:34.802Z,11.07
2018-12-12T20:24:03.385Z,9.87
2018-12-12T20:26:31.616Z,10.00
2018-12-12T20:28:59.800Z,13.33
2018-12-12T20:31:28.036Z,10.03
2018-12-12T20:33:57.639Z,11.97
2018-12-12T20:36:25.867Z,11.23
2018-12-12T20:38:54.123Z,9.33
2018-12-12T20:41:22.403Z,13.67
2018-12-12T20:43:50.676Z,9.27
2018-12-12T20:46:18.988Z,8.90
2018-12-12T20:48:47.309Z,11.43
2018-12-12T20:51:15.491Z,9.37
2018-12-12T20:53:43.751Z,10.40
2018-12-12T20:56:11.959Z,8.77
2018-12-12T20:58:40.212Z,10.37
2018-12-12T21:01:09.623Z,10.30
2018-12-12T21:03:37.811Z,12.63
2018-12-12T21:06:06.262Z,12.63
2018-12-12T21:08:34.657Z,11.63
2018-12-12T21:11:02.885Z,11.70
2018-12-12T21:13:31.262Z,11.10
2018-12-12T21:15:59.682Z,13.73
2018-12-12T21:18:28.042Z,12.93
2018-12-12T21:20:56.344Z,10.93
2018-12-12T21:23:24.688Z,12.43
2018-12-12T21:25:53.497Z,14.90
2018-12-12T21:28:21.731Z,12.70
2018-12-12T21:30:50.057Z,11.27
2018-12-12T21:33:18.291Z,16.00
2018-12-12T21:35:46.493Z,14.67
2018-12-12T21:38:14.739Z,10.83
2018-12-12T21:40:42.952Z,10.80
2018-12-12T21:43:11.179Z,12.33
2018-12-12T21:45:39.590Z,13.13
2018-12-12T21:48:07.835Z,14.33
2018-12-12T21:50:36.072Z,13.97
2018-12-12T21:53:04.599Z,13.77
2018-12-12T21:55:32.841Z,14.40
2018-12-12T21:58:01.141Z,11.90
2018-12-12T22:00:29.367Z,12.20
2018-12-12T22:02:57.567Z,15.27
2018-12-12T22:05:25.828Z,11.20
2018-12-12T22:07:54.144Z,12.40
2018-12-12T22:10:22.429Z,11.67
2018-12-12T22:12:50.734Z,12.47
2018-12-12T22:15:19.067Z,13.03
2018-12-12T22:17:47.278Z,11.43
2018-12-12T22:20:15.504Z,11.00
2018-12-12T22:22:43.856Z,13.60
2018-12-12T22:25:12.237Z,10.83
2018-12-12T22:27:40.437Z,10.00
2018-12-12T22:30:08.783Z,10.20
2018-12-12T22:32:36.991Z,9.77
2018-12-12T22:35:05.404Z,11.23
2018-12-12T22:37:33.831Z,12.50
2018-12-12T22:40:02.144Z,10.40
2018-12-12T22:42:30.355Z,12.73
2018-12-12T22:44:58.592Z,12.37
2018-12-12T22:47:26.809Z,10.10
2018-12-12T22:49:55.017Z,11.30
2018-12-12T22:52:23.319Z,12.23
2018-12-12T22:54:51.653Z,11.23
2018-12-12T22:57:19.893Z,11.00
2018-12-12T22:59:48.355Z,11.40
2018-12-12T23:02:16.691Z,11.93
2018-12-12T23:04:45.011Z,13.40
2018-12-12T23:07:13.240Z,13.93
2018-12-12T23:09:41.523Z,13.53
2018-12-12T23:12:09.765Z,10.77
2018-12-12T23:14:38.023Z,9.97
2018-12-12T23:17:06.262Z,11.50
2018-12-12T23:19:34.502Z,11.27
2018-12-12T23:22:02.883Z,9.30
2018-12-12T23:24:31.115Z,11.67
2018-12-12T23:26:59.348Z,12.47
2018-12-12T23:29:27.594Z,12.13
2018-12-12T23:31:56.179Z,11.03
2018-12-12T23:34:24.395Z,11.83
2018-12-12T23:36:52.647Z,10.50
2018-12-12T23:39:20.833Z,11.73
2018-12-12T23:41:49.045Z,13.40
2018-12-12T23:44:17.648Z,10.20
2018-12-12T23:46:46.000Z,11.67
2018-12-12T23:49:14.268Z,12.07
2018-12-12T23:51:42.496Z,10.83
2018-12-12T23:54:10.720Z,11.63
2018-12-12T23:56:38.983Z,11.17
2018-12-12T23:59:07.227Z,12.97
